Nye, MT

9:35 AM MDT on August 24, 2016 (GMT -0600)
Cathedral Mountain Ranch | | Change Station

Elev 5259 ft 45.41 °N, 109.87 °W | Updated 4 minutes ago

Clear
Clear
54.1 °F
Feels Like 54.1 °F
N
0.0
Wind Variable Wind from ESE
Gusts 1.0 mph

Today
High -- | Low -- °F
--% Chance of Precip.
Yesterday
High -- | Low -- °F
Precip. -- in
Pressure 30.24 in
Visibility 10.0 miles
Clouds Clear
Dew Point 41 °F
Humidity 61%
Rainfall 0.00 in
Snow Depth Not available.
6:31 AM 8:10 PM
Waning Gibbous, 56% visible
METAR KLVM 241453Z AUTO 27007KT 10SM CLR 13/05 A3031 RMK AO2 SLP240 T01280050 51005
Pressure 30.24 in
Visibility 10.0 miles
Clouds Clear
Dew Point 41 °F
Humidity 61%
Rainfall 0.00 in
Snow Depth Not available.
6:31 AM 8:10 PM
Waning Gibbous, 56% visible
METAR KLVM 241453Z AUTO 27007KT 10SM CLR 13/05 A3031 RMK AO2 SLP240 T01280050 51005

10-Day Weather Forecast

Almanac

Astronomy

Aug. 24, 2016 Rise Set
Actual Time
Civil Twilight
Nautical Twilight
Astronomical Twilight
Moon
Length of Visible Light
Length of Day
Tomorrow will be .
, % of the Moon is Illuminated

Today's Extremes

State Highs State Lows

Community

WunderPhotos

Upload Photos

1,934,618 photos uploaded!

WunderBlog® & News

Nearby

Air Quality

  Air Quality AQ Index Pollutant
Not available.

Snow Depth

Station Depth Elevation

Earthquake Activity

City Distance Mag. Time & Date
Minimum magnitude displayed is 2.5.

Coastal Water Temperatures

Place Temperature

Stations

Nearby Weather Stations

Station Location Temp. Windchill Dew Point Humidity Wind Precip. Elev Updated Type
                   

Watches & Warnings

There are currently no watches in effect.